CDT,Max TemperatureF,Mean TemperatureF,Min TemperatureF,Max Dew PointF,MeanDew PointF,Min DewpointF,Max Humidity, Mean Humidity, Min Humidity, Max Sea Level PressureIn, Mean Sea Level PressureIn, Min Sea Level PressureIn, Max VisibilityMiles, Mean VisibilityMiles, Min VisibilityMiles, Max Wind SpeedMPH, Mean Wind SpeedMPH, Max Gust SpeedMPH,PrecipitationIn, CloudCover, Events, WindDirDegrees
2013-3-1,23,4,-15,4,-4,-19,83,57,31,30.53,30.48,30.36,10,10,6,12,5,16,0.00,0,,73
2013-3-2,25,3,-20,-1,-9,-20,81,54,27,30.45,30.34,30.20,10,10,10,12,4,14,0.00,4,,88
2013-3-3,33,21,9,9,4,-7,66,50,33,30.18,30.11,30.01,10,10,10,14,7,18,0.00,5,,116
2013-3-4,29,19,8,20,11,-2,73,61,49,30.20,30.11,30.04,10,8,1,18,10,23,T,6,Snow,100
2013-3-5,22,20,17,18,14,11,84,73,62,30.40,30.27,30.13,10,3,0,14,9,20,0.20,8,Fog-Snow,36
2013-3-6,26,10,-7,12,5,-9,100,80,59,30.46,30.40,30.30,10,10,3,12,4,15,T,4,Snow,327
2013-3-7,33,11,-11,16,3,-14,87,66,45,30.46,30.38,30.30,10,9,0,12,4,14,0.00,2,Fog,130
2013-3-8,31,24,17,23,19,14,84,74,63,30.32,30.24,30.10,10,10,7,12,5,15,0.00,7,,182
2013-3-9,33,30,26,30,28,22,100,91,81,30.14,29.87,29.75,7,2,0,10,6,15,0.43,8,Fog-Rain-Snow,38
2013-3-10,31,20,8,30,19,5,100,77,53,30.13,30.03,29.82,10,9,3,20,10,24,T,6,,343
2013-3-11,25,13,1,15,11,1,92,77,62,30.11,29.93,29.77,10,10,6,10,4,13,0.00,7,,36
2013-3-12,24,8,-8,10,3,-8,87,62,36,30.25,30.04,29.80,10,10,10,17,8,22,0.00,3,,358
2013-3-13,32,8,-17,10,0,-17,91,65,39,30.38,30.31,30.23,10,10,10,9,2,12,0.00,0,,290
2013-3-14,38,18,-3,27,17,-7,96,78,59,30.21,30.10,30.00,10,10,10,17,7,22,T,7,,263
2013-3-15,24,15,6,18,4,-7,80,61,42,30.17,30.10,30.02,10,7,2,14,8,20,0.04,6,Snow,24
2013-3-16,11,-3,-17,1,-4,-14,91,73,55,30.33,30.17,30.06,10,9,2,22,7,26,T,5,Snow,303
2013-3-17,22,-3,-28,6,-11,-32,87,62,36,30.38,30.19,29.88,10,10,10,20,7,24,0.01,4,,146
2013-3-18,28,21,14,25,18,10,92,86,80,29.86,29.57,29.43,8,2,0,23,11,30,0.45,8,Fog-Snow,133
2013-3-19,18,12,5,9,3,-2,88,72,56,30.14,29.92,29.65,10,9,2,25,17,32,T,6,Snow,297
2013-3-20,18,3,-12,6,0,-9,87,72,56,30.21,30.16,30.08,10,9,2,17,9,23,T,6,Snow,316
2013-3-21,27,6,-16,8,-2,-21,88,63,38,30.21,30.15,30.07,10,9,2,10,4,15,T,2,,353
2013-3-22,32,13,-7,18,10,-8,87,71,54,30.17,30.14,30.06,10,10,10,8,2,10,T,4,,24
2013-3-23,30,14,-2,18,12,-4,92,75,58,30.22,30.19,30.12,10,10,10,10,5,14,0.00,6,,14
2013-3-24,30,21,11,18,15,8,92,73,53,30.20,30.18,30.09,10,10,10,14,7,18,T,7,,17
2013-3-25,36,25,13,19,14,9,88,66,44,30.28,30.24,30.19,10,10,10,15,7,20,0.00,2,,355
2013-3-26,39,25,11,22,19,12,88,68,48,30.33,30.30,30.26,10,10,10,9,2,12,0.00,6,,346
2013-3-27,43,29,14,20,17,13,84,57,30,30.37,30.34,30.32,10,10,10,8,2,10,0.00,5,,357
2013-3-28,46,26,5,21,13,2,91,59,27,30.37,30.33,30.28,10,10,10,8,1,12,0.00,0,,26
2013-3-29,50,31,11,30,21,8,92,66,39,30.29,30.18,30.02,10,10,10,13,3,17,0.00,2,,202
2013-3-30,48,34,20,28,23,18,92,65,37,30.01,29.87,29.79,10,10,7,16,7,20,0.00,2,,286
2013-3-31,34,25,16,25,15,7,69,58,46,30.11,29.87,29.72,10,9,1,16,15,21,0.01,8,Snow,319